createdAt,value
2023-01-02T00:00:04.536Z,1.50
2023-01-02T00:02:32.631Z,1.60
2023-01-02T00:05:00.826Z,1.42
2023-01-02T00:07:28.953Z,1.30
2023-01-02T00:09:57.010Z,1.50
2023-01-02T00:12:26.364Z,1.23
2023-01-02T00:14:54.424Z,1.60
2023-01-02T00:17:22.416Z,1.67
2023-01-02T00:19:50.448Z,1.60
2023-01-02T00:22:18.415Z,1.20
2023-01-02T00:24:46.407Z,1.50
2023-01-02T00:27:15.061Z,1.20
2023-01-02T00:29:44.473Z,1.10
2023-01-02T00:32:12.488Z,1.38
2023-01-02T00:34:40.442Z,1.10
2023-01-02T00:37:08.422Z,1.30
2023-01-02T00:39:36.422Z,1.10
2023-01-02T00:42:04.484Z,1.15
2023-01-02T00:44:32.446Z,1.42
2023-01-02T00:47:01.924Z,1.58
2023-01-02T00:49:29.986Z,1.33
2023-01-02T00:51:57.991Z,1.40
2023-01-02T00:54:25.980Z,1.50
2023-01-02T00:56:53.971Z,1.38
2023-01-02T00:59:22.043Z,1.60
2023-01-02T01:01:50.233Z,1.48
2023-01-02T01:04:19.810Z,1.95
2023-01-02T01:06:47.864Z,2.40
2023-01-02T01:09:15.849Z,2.05
2023-01-02T01:11:43.786Z,1.88
2023-01-02T01:14:11.756Z,1.38
2023-01-02T01:16:40.190Z,1.60
2023-01-02T01:19:08.759Z,1.58
2023-01-02T01:21:38.031Z,2.65
2023-01-02T01:24:06.347Z,2.25
2023-01-02T01:26:34.503Z,1.63
2023-01-02T01:29:02.998Z,1.52
2023-01-02T01:31:31.050Z,2.22
2023-01-02T01:33:59.043Z,1.70
2023-01-02T01:36:27.167Z,1.60
2023-01-02T01:38:56.554Z,2.17
2023-01-02T01:41:26.763Z,1.88
2023-01-02T01:43:56.756Z,2.50
2023-01-02T01:46:31.101Z,1.83
2023-01-02T01:49:04.767Z,1.42
2023-01-02T01:51:36.538Z,2.25
2023-01-02T01:54:10.403Z,1.87
2023-01-02T01:56:42.569Z,2.10
2023-01-02T01:59:11.962Z,1.77
2023-01-02T02:01:41.412Z,1.95
2023-01-02T02:04:11.754Z,2.40
2023-01-02T02:06:40.312Z,2.08
2023-01-02T02:09:15.198Z,1.80
2023-01-02T02:11:43.802Z,2.40
2023-01-02T02:14:11.891Z,2.30
2023-01-02T02:16:46.742Z,1.98
2023-01-02T02:19:46.620Z,2.03
2023-01-02T02:22:34.949Z,1.90
2023-01-02T02:25:32.280Z,1.95
2023-01-02T02:28:28.296Z,1.77
2023-01-02T02:31:00.186Z,1.90
2023-01-02T02:33:38.390Z,1.77
2023-01-02T02:36:18.911Z,1.92
2023-01-02T02:39:05.121Z,2.03
2023-01-02T02:41:36.102Z,1.63
2023-01-02T02:44:15.991Z,1.40
2023-01-02T02:46:54.540Z,1.67
2023-01-02T02:49:36.170Z,1.50
2023-01-02T02:52:09.117Z,2.30
2023-01-02T02:54:41.647Z,2.10
2023-01-02T02:57:10.347Z,1.90
2023-01-02T02:59:39.512Z,1.70
2023-01-02T03:02:09.261Z,2.25
2023-01-02T03:04:38.356Z,2.25
2023-01-02T03:07:14.547Z,2.05
2023-01-02T03:09:50.537Z,1.50
2023-01-02T03:12:31.224Z,1.85
2023-01-02T03:15:08.249Z,1.85
2023-01-02T03:17:47.504Z,1.50
2023-01-02T03:20:20.270Z,1.73
2023-01-02T03:22:53.483Z,1.80
2023-01-02T03:25:22.933Z,1.83
2023-01-02T03:27:52.279Z,1.83
2023-01-02T03:30:22.484Z,1.67
2023-01-02T03:32:55.214Z,1.60
2023-01-02T03:37:57.450Z,1.80
2023-01-02T03:40:28.169Z,1.50
2023-01-02T03:43:01.157Z,1.63
2023-01-02T03:45:32.187Z,1.40
2023-01-02T03:48:09.222Z,1.50
2023-01-02T03:50:45.216Z,1.27
2023-01-02T03:53:13.858Z,1.20
2023-01-02T03:55:49.967Z,1.45
2023-01-02T03:58:25.935Z,1.27
2023-01-02T04:01:03.624Z,1.13
2023-01-02T04:03:37.915Z,1.27
2023-01-02T04:06:12.070Z,1.17
2023-01-02T04:08:44.509Z,1.20
2023-01-02T04:11:14.794Z,1.08
2023-01-02T04:13:46.117Z,0.90
2023-01-02T04:16:19.981Z,0.90
2023-01-02T04:18:53.299Z,1.05
2023-01-02T04:21:25.598Z,1.15
2023-01-02T04:23:59.588Z,3.25
2023-01-02T04:26:31.703Z,0.88
2023-01-02T04:28:59.915Z,0.90
2023-01-02T04:31:36.633Z,0.88
2023-01-02T04:34:10.885Z,0.82
2023-01-02T04:36:40.616Z,1.10
2023-01-02T04:39:08.570Z,0.77
2023-01-02T04:41:37.718Z,0.85
2023-01-02T04:44:05.900Z,1.30
2023-01-02T04:46:34.363Z,0.73
2023-01-02T04:49:02.406Z,1.05
2023-01-02T04:51:31.867Z,0.90
2023-01-02T04:53:59.933Z,0.93
2023-01-02T04:56:27.939Z,1.00
2023-01-02T04:58:55.919Z,0.73
2023-01-02T05:01:24.052Z,0.77
2023-01-02T05:03:53.648Z,1.00
2023-01-02T05:06:21.921Z,0.88
2023-01-02T05:08:51.304Z,0.70
2023-01-02T05:11:20.728Z,0.80
2023-01-02T05:13:48.786Z,0.90
2023-01-02T05:16:16.861Z,1.17
2023-01-02T05:18:44.824Z,1.10
2023-01-02T05:21:28.641Z,1.23
2023-01-02T05:23:59.533Z,1.50
2023-01-02T05:26:27.682Z,1.65
2023-01-02T05:28:56.209Z,1.45
2023-01-02T05:31:24.304Z,1.55
2023-01-02T05:33:53.610Z,0.98
2023-01-02T05:36:22.275Z,1.67
2023-01-02T05:38:50.611Z,1.63
2023-01-02T05:41:21.011Z,1.20
2023-01-02T05:43:49.089Z,1.10
2023-01-02T05:46:18.784Z,1.20
2023-01-02T05:48:47.364Z,1.00
2023-01-02T05:51:17.530Z,1.10
2023-01-02T05:53:46.001Z,1.20
2023-01-02T05:56:15.273Z,0.93
2023-01-02T05:58:46.064Z,1.20
2023-01-02T06:01:16.207Z,1.42
2023-01-02T06:03:46.859Z,1.40
2023-01-02T06:06:16.388Z,1.50
2023-01-02T06:08:44.624Z,1.38
2023-01-02T06:11:12.723Z,1.20
2023-01-02T06:13:40.904Z,1.00
2023-01-02T06:16:11.985Z,1.25
2023-01-02T06:18:40.788Z,1.20
2023-01-02T06:21:11.157Z,1.60
2023-01-02T06:23:40.235Z,1.27
2023-01-02T06:26:10.191Z,1.10
2023-01-02T06:28:38.292Z,1.15
2023-01-02T06:31:08.340Z,1.02
2023-01-02T06:33:38.877Z,1.02
2023-01-02T06:36:09.646Z,1.38
2023-01-02T06:38:38.295Z,1.00
2023-01-02T06:41:07.929Z,1.00
2023-01-02T06:43:37.468Z,1.58
2023-01-02T06:46:06.409Z,1.20
2023-01-02T06:48:35.401Z,1.10
2023-01-02T06:51:07.831Z,1.30
2023-01-02T06:53:37.096Z,1.15
2023-01-02T06:56:05.886Z,1.10
2023-01-02T06:58:36.147Z,1.13
2023-01-02T07:01:05.340Z,1.13
2023-01-02T07:03:33.436Z,1.00
2023-01-02T07:06:02.774Z,1.23
2023-01-02T07:08:33.272Z,1.15
2023-01-02T07:11:10.104Z,0.60
2023-01-02T07:13:38.205Z,0.90
2023-01-02T07:16:09.108Z,0.60
2023-01-02T07:18:38.037Z,0.95
2023-01-02T07:21:06.759Z,1.30
2023-01-02T07:23:36.565Z,0.82
2023-01-02T07:26:06.769Z,1.00
2023-01-02T07:28:36.025Z,1.00
2023-01-02T07:31:05.575Z,0.80
2023-01-02T07:33:34.796Z,1.00
2023-01-02T07:36:04.320Z,1.85
2023-01-02T07:38:32.336Z,7.18
2023-01-02T07:41:01.764Z,1.50
2023-01-02T07:43:29.785Z,1.25
2023-01-02T07:46:03.341Z,1.35
2023-01-02T07:48:32.105Z,1.33
2023-01-02T07:51:03.723Z,1.10
2023-01-02T07:53:31.829Z,1.25
2023-01-02T07:56:02.361Z,1.05
2023-01-02T07:58:30.657Z,1.02
2023-01-02T08:01:05.248Z,0.80
2023-01-02T08:03:33.885Z,1.08
2023-01-02T08:06:07.089Z,1.13
2023-01-02T08:08:35.292Z,1.23
2023-01-02T08:11:07.589Z,1.10
2023-01-02T08:13:35.906Z,1.15
2023-01-02T08:16:09.074Z,1.38
2023-01-02T08:18:37.186Z,1.10
2023-01-02T08:21:06.080Z,1.20
2023-01-02T08:23:35.003Z,1.02
2023-01-02T08:26:04.223Z,1.10
2023-01-02T08:28:34.786Z,1.10
2023-01-02T08:31:03.044Z,1.10
2023-01-02T08:33:30.978Z,1.40
2023-01-02T08:35:58.925Z,1.40
2023-01-02T08:38:27.020Z,1.60
2023-01-02T08:40:55.056Z,1.60
2023-01-02T08:43:23.128Z,0.90
2023-01-02T08:45:52.697Z,1.08
2023-01-02T08:48:21.753Z,1.40
2023-01-02T08:50:50.675Z,1.20
2023-01-02T08:53:18.784Z,1.45
2023-01-02T08:55:47.128Z,1.10
2023-01-02T08:58:15.376Z,1.20
2023-01-02T09:00:43.345Z,1.35
2023-01-02T09:03:12.731Z,1.40
2023-01-02T09:05:40.731Z,1.20
2023-01-02T09:08:08.954Z,1.20
2023-01-02T09:10:36.914Z,1.40
2023-01-02T09:13:04.919Z,1.70
2023-01-02T09:15:33.118Z,1.30
2023-01-02T09:18:01.076Z,1.50
2023-01-02T09:20:30.455Z,1.92
2023-01-02T09:22:58.514Z,1.45
2023-01-02T09:25:26.555Z,1.50
2023-01-02T09:27:54.583Z,1.60
2023-01-02T09:30:22.702Z,0.93
2023-01-02T09:32:50.954Z,0.80
2023-01-02T09:35:19.113Z,0.90
2023-01-02T09:37:48.597Z,1.70
2023-01-02T09:40:16.686Z,1.20
2023-01-02T09:42:45.587Z,1.30
2023-01-02T09:45:14.710Z,1.05
2023-01-02T09:47:44.854Z,1.00
2023-01-02T09:50:17.284Z,0.80
2023-01-02T09:52:51.972Z,0.88
2023-01-02T09:55:30.548Z,1.10
2023-01-02T09:58:10.406Z,0.98
2023-01-02T10:00:39.936Z,1.08
2023-01-02T10:03:18.512Z,1.25
2023-01-02T10:06:08.073Z,1.20
2023-01-02T10:08:47.015Z,1.10
2023-01-02T10:11:28.364Z,1.10
2023-01-02T10:14:18.543Z,0.70
2023-01-02T10:16:50.970Z,0.93
2023-01-02T10:21:58.575Z,1.50
2023-01-02T10:24:38.873Z,0.70
2023-01-02T10:27:10.023Z,0.88
2023-01-02T10:29:44.236Z,1.30
2023-01-02T10:32:16.194Z,0.85
2023-01-02T10:34:51.566Z,1.52
2023-01-02T10:37:19.565Z,0.95
2023-01-02T10:39:51.637Z,0.80
2023-01-02T10:42:20.400Z,1.20
2023-01-02T10:44:49.008Z,0.90
2023-01-02T10:47:23.629Z,0.80
2023-01-02T10:49:54.203Z,1.10
2023-01-02T10:52:28.993Z,1.00
2023-01-02T10:55:00.701Z,0.82
2023-01-02T10:57:40.973Z,1.00
2023-01-02T11:00:28.094Z,1.48
2023-01-02T11:02:59.843Z,1.17
2023-01-02T11:05:30.771Z,0.60
2023-01-02T11:08:00.119Z,0.75
2023-01-02T11:10:34.981Z,0.55
2023-01-02T11:13:05.464Z,0.70
2023-01-02T11:15:35.491Z,0.60
2023-01-02T11:18:05.049Z,1.05
2023-01-02T11:20:36.249Z,0.60
2023-01-02T11:23:07.611Z,0.82
2023-01-02T11:25:41.860Z,0.45
2023-01-02T11:28:18.908Z,0.65
2023-01-02T11:30:51.584Z,0.80
2023-01-02T11:33:27.335Z,0.65
2023-01-02T11:35:57.520Z,1.10
2023-01-02T11:38:30.818Z,1.00
2023-01-02T11:41:02.987Z,1.27
2023-01-02T11:43:51.759Z,1.27
2023-01-02T11:46:31.506Z,1.60
2023-01-02T11:49:04.579Z,2.00
2023-01-02T11:51:36.803Z,2.25
2023-01-02T11:54:24.671Z,1.42
2023-01-02T11:56:54.457Z,2.85
2023-01-02T11:59:26.270Z,2.10
2023-01-02T12:01:59.420Z,1.70
2023-01-02T12:04:27.768Z,1.58
2023-01-02T12:07:12.228Z,1.35
2023-01-02T12:09:51.275Z,1.30
2023-01-02T12:12:38.788Z,2.03
2023-01-02T12:15:43.650Z,1.27
2023-01-02T12:18:26.733Z,1.00
2023-01-02T12:21:02.110Z,1.02
2023-01-02T12:23:47.605Z,1.05
2023-01-02T12:26:19.198Z,1.40
2023-01-02T12:29:12.401Z,1.35
2023-01-02T12:34:31.429Z,1.10
2023-01-02T12:37:11.085Z,0.77
2023-01-02T12:39:56.107Z,1.00
2023-01-02T12:42:41.308Z,1.20
2023-01-02T12:45:15.950Z,0.80
2023-01-02T12:48:01.957Z,0.70
2023-01-02T12:50:54.724Z,1.00
2023-01-02T12:53:38.435Z,0.90
2023-01-02T12:56:13.179Z,1.08
2023-01-02T12:58:56.492Z,1.10
2023-01-02T13:01:31.226Z,0.90
2023-01-02T13:04:07.301Z,1.17
2023-01-02T13:06:47.075Z,0.73
2023-01-02T13:09:22.975Z,0.85
2023-01-02T13:11:58.710Z,1.15
2023-01-02T13:14:37.865Z,0.85
2023-01-02T13:17:36.756Z,1.20
2023-01-02T13:20:12.898Z,0.93
2023-01-02T13:22:51.673Z,0.90
2023-01-02T13:25:24.497Z,1.00
2023-01-02T13:27:53.715Z,0.82
2023-01-02T13:30:38.973Z,1.10
2023-01-02T13:33:29.168Z,1.02
2023-01-02T13:35:57.308Z,0.82
2023-01-02T13:38:29.663Z,1.10
2023-01-02T13:41:00.336Z,1.05
2023-01-02T13:43:36.102Z,0.60
2023-01-02T13:46:36.957Z,0.70
2023-01-02T13:49:05.691Z,1.20
2023-01-02T13:51:36.534Z,1.17
2023-01-02T13:54:15.417Z,1.13
2023-01-02T13:57:31.141Z,1.00
2023-01-02T14:00:00.177Z,1.00
2023-01-02T14:02:28.968Z,1.13
2023-01-02T14:04:58.627Z,0.70
2023-01-02T14:07:50.450Z,0.90
2023-01-02T14:10:45.074Z,1.42
2023-01-02T14:13:27.686Z,1.00
2023-01-02T14:16:49.252Z,0.90
2023-01-02T14:19:26.946Z,0.70
2023-01-02T14:22:05.847Z,0.90
2023-01-02T14:24:38.351Z,0.90
2023-01-02T14:27:17.688Z,2.15
2023-01-02T14:29:53.308Z,2.15
2023-01-02T14:32:27.473Z,1.88
2023-01-02T14:34:57.880Z,2.10
2023-01-02T14:37:39.616Z,1.75
2023-01-02T14:40:19.356Z,1.40
2023-01-02T14:43:12.196Z,2.65
2023-01-02T14:45:44.619Z,1.42
2023-01-02T14:48:17.412Z,1.40
2023-01-02T14:50:48.440Z,1.45
2023-01-02T14:53:21.364Z,1.23
2023-01-02T14:55:52.346Z,1.20
2023-01-02T14:58:26.192Z,1.27
2023-01-02T15:01:02.382Z,1.40
2023-01-02T15:03:41.771Z,1.50
2023-01-02T15:06:15.469Z,1.33
2023-01-02T15:08:49.237Z,1.20
2023-01-02T15:11:37.818Z,1.25
2023-01-02T15:14:07.489Z,1.25
2023-01-02T15:16:41.947Z,1.60
2023-01-02T15:19:20.506Z,1.83
2023-01-02T15:21:49.028Z,1.80
2023-01-02T15:24:23.716Z,1.15
2023-01-02T15:26:52.378Z,1.50
2023-01-02T15:29:23.515Z,1.95
2023-01-02T15:31:59.137Z,1.98
2023-01-02T15:34:29.106Z,1.95
2023-01-02T15:36:59.331Z,2.08
2023-01-02T15:39:34.571Z,1.45
2023-01-02T15:42:09.994Z,2.00
2023-01-02T15:44:58.254Z,1.52
2023-01-02T15:47:28.462Z,1.60
2023-01-02T15:49:58.197Z,2.05
2023-01-02T15:52:31.320Z,2.08
2023-01-02T15:55:01.546Z,1.45
2023-01-02T15:57:32.262Z,2.67
2023-01-02T16:00:01.002Z,1.98
2023-01-02T16:02:34.786Z,1.58
2023-01-02T16:05:12.205Z,1.48
2023-01-02T16:07:40.583Z,1.80
2023-01-02T16:10:21.120Z,1.90
2023-01-02T16:12:54.737Z,1.63
2023-01-02T16:15:25.783Z,1.27
2023-01-02T16:17:55.680Z,1.58
2023-01-02T16:20:25.462Z,2.45
2023-01-02T16:22:57.643Z,1.92
2023-01-02T16:25:28.600Z,1.50
2023-01-02T16:28:00.791Z,2.15
2023-01-02T16:30:33.023Z,1.75
2023-01-02T16:33:03.181Z,1.88
2023-01-02T16:35:34.264Z,1.10
2023-01-02T16:38:04.491Z,2.80
2023-01-02T16:41:03.057Z,1.70
2023-01-02T16:43:41.077Z,1.70
2023-01-02T16:46:14.815Z,1.42
2023-01-02T16:48:44.472Z,1.67
2023-01-02T16:51:15.567Z,2.00
2023-01-02T16:53:45.864Z,2.35
2023-01-02T16:56:16.486Z,2.38
2023-01-02T16:58:44.540Z,1.98
2023-01-02T17:01:14.166Z,1.92
2023-01-02T17:03:42.888Z,1.40
2023-01-02T17:06:13.700Z,1.88
2023-01-02T17:08:42.273Z,1.95
2023-01-02T17:11:12.932Z,1.77
2023-01-02T17:13:42.433Z,3.00
2023-01-02T17:16:10.392Z,1.60
2023-01-02T17:18:38.438Z,1.60
2023-01-02T17:21:06.916Z,2.25
2023-01-02T17:23:35.088Z,1.75
2023-01-02T17:26:03.660Z,2.05
2023-01-02T17:28:31.630Z,1.90
2023-01-02T17:31:01.156Z,2.20
2023-01-02T17:33:29.137Z,1.85
2023-01-02T17:35:58.157Z,1.75
2023-01-02T17:38:26.184Z,1.90
2023-01-02T17:40:58.186Z,1.65
2023-01-02T17:43:26.571Z,1.67
2023-01-02T17:45:56.672Z,2.10
2023-01-02T17:48:26.137Z,2.00
2023-01-02T17:50:54.760Z,2.22
2023-01-02T17:53:22.816Z,1.50
2023-01-02T17:56:20.347Z,2.13
2023-01-02T17:58:43.470Z,1.77
2023-01-02T18:01:16.460Z,2.67
2023-01-02T18:03:46.416Z,2.70
2023-01-02T18:06:14.926Z,2.20
2023-01-02T18:08:43.209Z,2.45
2023-01-02T18:11:13.638Z,2.10
2023-01-02T18:13:43.629Z,1.83
2023-01-02T18:16:16.280Z,1.63
2023-01-02T18:18:46.890Z,1.98
2023-01-02T18:21:17.726Z,2.65
2023-01-02T18:23:46.304Z,2.22
2023-01-02T18:26:16.286Z,2.50
2023-01-02T18:28:51.218Z,1.80
2023-01-02T18:31:20.658Z,3.22
2023-01-02T18:33:51.461Z,3.08
2023-01-02T18:36:24.972Z,2.15
2023-01-02T18:39:03.163Z,1.88
2023-01-02T18:41:33.843Z,2.67
2023-01-02T18:44:07.895Z,2.15
2023-01-02T18:47:02.251Z,2.53
2023-01-02T18:49:29.000Z,2.40
2023-01-02T18:52:40.209Z,2.55
2023-01-02T18:55:23.558Z,2.40
2023-01-02T18:57:56.332Z,3.08
2023-01-02T19:00:28.238Z,3.67
2023-01-02T19:03:00.370Z,3.15
2023-01-02T19:05:31.945Z,2.58
2023-01-02T19:08:16.582Z,2.60
2023-01-02T19:10:48.631Z,2.05
2023-01-02T19:13:18.817Z,2.50
2023-01-02T19:15:50.724Z,2.53
2023-01-02T19:18:29.925Z,2.25
2023-01-02T19:21:14.699Z,2.67
2023-01-02T19:23:52.618Z,2.50
2023-01-02T19:26:25.763Z,3.10
2023-01-02T19:28:57.740Z,2.22
2023-01-02T19:31:26.127Z,2.13
2023-01-02T19:33:58.335Z,2.08
2023-01-02T19:36:36.474Z,2.60
2023-01-02T19:39:20.513Z,2.10
2023-01-02T19:42:08.211Z,2.50
2023-01-02T19:44:36.349Z,2.63
2023-01-02T19:47:04.788Z,2.33
2023-01-02T19:49:32.754Z,1.92
2023-01-02T19:52:02.177Z,2.17
2023-01-02T19:54:30.112Z,2.05
2023-01-02T19:56:58.013Z,1.92
2023-01-02T19:59:26.001Z,1.90
2023-01-02T20:01:54.038Z,2.33
2023-01-02T20:04:22.098Z,2.20
2023-01-02T20:06:50.029Z,2.55
2023-01-02T20:09:21.877Z,2.28
2023-01-02T20:12:07.797Z,2.10
2023-01-02T20:14:36.182Z,1.55
2023-01-02T20:17:04.232Z,1.98
2023-01-02T20:19:32.196Z,2.10
2023-01-02T20:22:00.723Z,2.33
2023-01-02T20:24:30.235Z,1.70
2023-01-02T20:27:00.626Z,1.92
2023-01-02T20:29:29.397Z,2.33
2023-01-02T20:31:57.630Z,2.08
2023-01-02T20:34:25.874Z,2.13
2023-01-02T20:36:53.844Z,2.35
2023-01-02T20:39:21.922Z,2.72
2023-01-02T20:41:51.441Z,1.85
2023-01-02T20:44:19.465Z,1.90
2023-01-02T20:46:47.640Z,2.05
2023-01-02T20:49:15.684Z,2.10
2023-01-02T20:51:43.549Z,2.05
2023-01-02T20:54:11.661Z,2.22
2023-01-02T20:56:39.704Z,1.80
2023-01-02T20:59:09.184Z,2.35
2023-01-02T21:01:37.187Z,1.77
2023-01-02T21:04:06.090Z,2.05
2023-01-02T21:06:34.133Z,1.70
2023-01-02T21:09:02.653Z,1.83
2023-01-02T21:11:30.655Z,1.90
2023-01-02T21:14:01.322Z,2.33
2023-01-02T21:16:33.020Z,2.85
2023-01-02T21:19:01.044Z,2.07
2023-01-02T21:21:30.660Z,2.33
2023-01-02T21:23:58.837Z,2.80
2023-01-02T21:26:26.760Z,2.08
2023-01-02T21:28:55.037Z,1.50
2023-01-02T21:31:23.199Z,1.60
2023-01-02T21:33:52.502Z,1.92
2023-01-02T21:36:20.466Z,1.98
2023-01-02T21:38:48.487Z,1.67
2023-01-02T21:41:33.809Z,2.17
2023-01-02T21:44:01.843Z,2.05
2023-01-02T21:46:29.894Z,1.55
2023-01-02T21:48:59.313Z,1.20
2023-01-02T21:51:32.444Z,1.80
2023-01-02T21:54:01.075Z,2.08
2023-01-02T21:56:29.030Z,1.23
2023-01-02T21:58:57.586Z,1.60
2023-01-02T22:01:25.563Z,1.55
2023-01-02T22:03:56.903Z,2.10
2023-01-02T22:06:33.829Z,1.00
2023-01-02T22:09:01.901Z,1.13
2023-01-02T22:11:47.884Z,1.20
2023-01-02T22:14:15.816Z,1.27
2023-01-02T22:16:43.738Z,1.67
2023-01-02T22:19:12.052Z,1.70
2023-01-02T22:21:42.051Z,1.50
2023-01-02T22:24:10.128Z,1.30
2023-01-02T22:26:38.943Z,1.33
2023-01-02T22:29:07.301Z,1.27
2023-01-02T22:31:35.733Z,1.20
2023-01-02T22:34:04.514Z,1.23
2023-01-02T22:36:33.619Z,1.17
2023-01-02T22:42:57.601Z,1.65
2023-01-02T22:45:08.259Z,1.17
2023-01-02T22:47:39.001Z,1.63
2023-01-02T22:50:12.034Z,1.25
2023-01-02T22:52:40.540Z,1.40
2023-01-02T22:55:17.259Z,1.60
2023-01-02T22:57:51.158Z,1.50
2023-01-02T23:00:23.240Z,1.10
2023-01-02T23:02:51.495Z,1.40
2023-01-02T23:05:21.941Z,1.15
2023-01-02T23:07:50.569Z,1.60
2023-01-02T23:10:20.109Z,1.40
2023-01-02T23:12:48.056Z,1.27
2023-01-02T23:15:15.958Z,1.00
2023-01-02T23:18:01.179Z,0.88
2023-01-02T23:20:29.261Z,1.50
2023-01-02T23:22:57.481Z,1.13
2023-01-02T23:25:26.988Z,1.20
2023-01-02T23:27:55.776Z,0.98
2023-01-02T23:30:23.857Z,1.05
2023-01-02T23:32:51.815Z,1.27
2023-01-02T23:35:19.800Z,1.20
2023-01-02T23:37:47.959Z,1.38
2023-01-02T23:40:16.003Z,1.27
2023-01-02T23:42:45.237Z,2.65
2023-01-02T23:45:13.273Z,1.10
2023-01-02T23:47:41.311Z,1.55
2023-01-02T23:50:09.891Z,1.63
2023-01-02T23:52:37.761Z,1.10
2023-01-02T23:55:06.578Z,1.52
2023-01-02T23:57:34.613Z,1.25
